This is the latest recevied weather packets stored in our database for station/object HK4DAP-11. If no packets are shown the sender has not sent any weather packets the latest 10 day(s).
| Time | Temp. | Humidity | Pressure | Rain* | Wind** | Luminosity | Snow |
|---|---|---|---|---|---|---|---|
| 1777671256 | 25.56° C | 73% | 845.9 hPa | - | - | - | - |
| 1777670952 | 25° C | 73% | 846 hPa | - | - | - | - |
| 1777670652 | 25.56° C | 72% | 846 hPa | - | - | - | - |
| 1777670352 | 25.56° C | 73% | 846 hPa | - | - | - | - |
| 1777670051 | 25.56° C | 71% | 845.8 hPa | - | - | - | - |
| 1777669751 | 25.56° C | 72% | 845.8 hPa | - | - | - | - |
| 1777669451 | 25.56° C | 72% | 845.7 hPa | - | - | - | - |
| 1777669151 | 25.56° C | 72% | 845.8 hPa | - | - | - | - |
| 1777668851 | 25.56° C | 71% | 845.8 hPa | - | - | - | - |
| 1777668551 | 25.56° C | 70% | 845.8 hPa | - | - | - | - |
| 1777668251 | 25.56° C | 70% | 845.8 hPa | - | - | - | - |
| 1777667950 | 25.56° C | 71% | 845.8 hPa | - | - | - | - |
| 1777667650 | 27.22° C | 65% | 845.8 hPa | - | - | - | - |
| 1777667350 | 27.22° C | 66% | 845.8 hPa | - | - | - | - |
| 1777667050 | 26.67° C | 67% | 845.9 hPa | - | - | - | - |
| 1777666750 | 26.67° C | 67% | 845.8 hPa | - | - | - | - |
| 1777666450 | 26.67° C | 66% | 845.9 hPa | - | - | - | - |
| 1777666150 | 26.67° C | 66% | 845.8 hPa | - | - | - | - |
| 1777665849 | 26.67° C | 67% | 846 hPa | - | - | - | - |
| 1777665549 | 26.67° C | 67% | 846 hPa | - | - | - | - |
| 1777665249 | 25.56° C | 73% | 846 hPa | - | - | - | - |
| 1777664949 | 25° C | 74% | 846.1 hPa | - | - | - | - |
| 1777664649 | 25.56° C | 73% | 846.1 hPa | - | - | - | - |
| 1777664349 | 25° C | 74% | 846.1 hPa | - | - | - | - |
| 1777664049 | 25.56° C | 73% | 846.2 hPa | - | - | - | - |
* Rain since midnight (hover to see other rain measurements)
** Current wind speed in m/s (hover to see current wind gust speed)